Time;durP1;ratioP1;P1;durP2;ratioP2;P2;SDS_P1;SDS_P2;PMS_P1;PMS_P2;Temp;Humidity;BMP_temperature;BMP_pressure;BME280_temperature;BME280_humidity;BME280_pressure;Samples;Min_cycle;Max_cycle;Signal;HPM_P1;HPM_P2
2021/09/11 00:01:58;;;;;;;48.78;32.13;;;;;;;16.51;100.00;101404.97;5091176;28;20076;-62
2021/09/11 00:04:23;;;;;;;50.75;33.15;;;;;;;16.45;100.00;101415.72;5089785;28;20028;-61
2021/09/11 00:06:49;;;;;;;47.60;31.60;;;;;;;16.28;100.00;101414.13;5086040;28;20029;-67
2021/09/11 00:09:14;;;;;;;47.42;30.80;;;;;;;16.26;100.00;101413.25;5089425;28;20024;-67
2021/09/11 00:11:40;;;;;;;43.33;29.23;;;;;;;16.14;100.00;101418.72;5090165;28;20707;-67
2021/09/11 00:14:05;;;;;;;44.70;29.25;;;;;;;16.08;100.00;101414.31;5093874;28;20032;-67
2021/09/11 00:16:30;;;;;;;46.45;29.13;;;;;;;16.00;100.00;101417.06;5089219;28;20028;-68
2021/09/11 00:18:56;;;;;;;43.53;28.33;;;;;;;15.96;100.00;101409.09;5092931;28;20020;-66
2021/09/11 00:21:21;;;;;;;45.22;29.92;;;;;;;15.94;100.00;101406.44;5089062;28;20051;-66
2021/09/11 00:23:46;;;;;;;45.65;30.02;;;;;;;15.89;100.00;101413.59;5090721;28;20020;-64
2021/09/11 00:26:13;;;;;;;46.03;29.63;;;;;;;15.83;100.00;101409.22;5091146;28;20144;-67
2021/09/11 00:28:39;;;;;;;44.65;30.23;;;;;;;15.79;100.00;101410.13;5087577;28;20090;-68
2021/09/11 00:31:06;;;;;;;47.05;30.33;;;;;;;15.75;100.00;101403.00;5089742;28;20024;-67
2021/09/11 00:33:31;;;;;;;44.35;29.02;;;;;;;15.67;100.00;101405.75;5092929;28;20024;-67
2021/09/11 00:35:57;;;;;;;43.47;28.67;;;;;;;15.62;100.00;101402.22;5091664;28;20034;-68
2021/09/11 00:38:22;;;;;;;43.83;28.48;;;;;;;15.58;100.00;101396.94;5088572;28;20020;-66
2021/09/11 00:40:47;;;;;;;43.67;28.33;;;;;;;15.58;100.00;101410.25;5090803;28;20020;-66
2021/09/11 00:43:20;;;;;;;42.40;28.05;;;;;;;15.47;100.00;101408.56;5090622;28;20102;-68
2021/09/11 00:45:45;;;;;;;40.63;26.00;;;;;;;15.38;100.00;101405.06;5090268;28;20028;-68
2021/09/11 00:48:10;;;;;;;41.25;26.75;;;;;;;15.29;100.00;101409.56;5093323;28;20024;-67
2021/09/11 00:50:36;;;;;;;41.03;26.83;;;;;;;15.24;100.00;101408.69;5084412;28;20048;-68
2021/09/11 00:53:01;;;;;;;40.58;26.40;;;;;;;15.26;100.00;101409.59;5083180;28;20024;-67
2021/09/11 00:55:27;;;;;;;38.50;24.83;;;;;;;15.18;100.00;101403.41;5085732;28;20024;-66
2021/09/11 00:57:53;;;;;;;37.78;23.27;;;;;;;15.10;100.00;101410.56;5083106;28;20068;-68
2021/09/11 01:00:18;;;;;;;38.40;23.50;;;;;;;15.04;100.00;101415.91;5085401;28;20031;-67
2021/09/11 01:02:44;;;;;;;35.97;22.60;;;;;;;15.02;100.00;101415.94;5084115;28;20028;-66
2021/09/11 01:05:11;;;;;;;37.70;22.70;;;;;;;14.98;100.00;101414.16;5084047;28;20099;-67
2021/09/11 01:07:42;;;;;;;39.05;22.90;;;;;;;14.90;100.00;101411.56;5085041;28;20149;-67
2021/09/11 01:10:08;;;;;;;36.67;22.73;;;;;;;14.87;100.00;101414.22;5083386;28;20025;-67
2021/09/11 01:12:34;;;;;;;37.90;23.10;;;;;;;14.83;100.00;101412.47;5085723;28;20024;-67
2021/09/11 01:15:10;;;;;;;38.58;22.92;;;;;;;14.83;100.00;101417.78;5082522;28;20394;-68
2021/09/11 01:17:39;;;;;;;37.58;23.45;;;;;;;14.79;100.00;101418.69;5084837;28;20103;-68
2021/09/11 01:20:05;;;;;;;39.92;24.23;;;;;;;14.76;100.00;101408.94;5083255;28;20063;-66
2021/09/11 01:22:31;;;;;;;41.33;25.00;;;;;;;14.76;100.00;101416.06;5085400;28;20024;-68
2021/09/11 01:25:01;;;;;;;41.50;25.00;;;;;;;14.72;100.00;101412.53;5082182;28;20035;-67
2021/09/11 01:27:27;;;;;;;45.92;26.38;;;;;;;14.73;100.00;101413.41;5082309;28;20021;-67
2021/09/11 01:29:59;;;;;;;48.50;27.75;;;;;;;14.74;100.00;101415.19;5085351;28;20512;-67
2021/09/11 01:32:25;;;;;;;50.72;30.50;;;;;;;14.76;100.00;101413.38;5082350;28;20083;-67
2021/09/11 01:34:51;;;;;;;52.40;31.17;;;;;;;14.78;100.00;101414.25;5084989;28;20092;-64
2021/09/11 01:37:18;;;;;;;54.78;32.85;;;;;;;14.77;100.00;101423.16;5083210;28;20024;-67
2021/09/11 01:39:47;;;;;;;53.88;33.15;;;;;;;14.79;100.00;101421.34;5083729;28;20460;-67
2021/09/11 01:42:17;;;;;;;58.20;35.03;;;;;;;14.84;100.00;101419.56;5083518;28;20062;-67
2021/09/11 01:44:46;;;;;;;62.03;36.45;;;;;;;14.81;100.00;101420.47;5084164;28;20097;-68
2021/09/11 01:47:12;;;;;;;57.58;35.75;;;;;;;14.82;100.00;101421.34;5083733;28;20036;-68
2021/09/11 01:49:38;;;;;;;59.15;35.80;;;;;;;14.80;100.00;101412.50;5082945;28;20028;-62
2021/09/11 01:52:03;;;;;;;61.10;35.75;;;;;;;14.77;100.00;101412.50;5084406;28;20052;-62
2021/09/11 01:54:28;;;;;;;56.97;34.42;;;;;;;14.72;100.00;101419.59;5081599;28;20055;-61
2021/09/11 01:56:54;;;;;;;54.97;32.63;;;;;;;14.72;100.00;101419.59;5085168;28;20028;-61
2021/09/11 01:59:19;;;;;;;54.17;32.80;;;;;;;14.66;100.00;101428.50;5082655;28;20115;-67
2021/09/11 02:01:44;;;;;;;52.75;32.20;;;;;;;14.63;100.00;101434.75;5083889;28;20485;-68
2021/09/11 02:04:10;;;;;;;52.83;31.63;;;;;;;14.64;100.00;101424.97;5083855;28;20028;-67
2021/09/11 02:06:35;;;;;;;48.65;30.13;;;;;;;14.63;100.00;101432.06;5082391;28;20075;-68
2021/09/11 02:09:00;;;;;;;50.35;29.60;;;;;;;14.59;100.00;101434.69;5084772;28;20182;-67
2021/09/11 02:11:26;;;;;;;48.65;29.80;;;;;;;14.56;100.00;101432.94;5081718;28;20031;-67
2021/09/11 02:13:51;;;;;;;48.15;28.45;;;;;;;14.54;100.00;101426.72;5084275;28;20032;-67
2021/09/11 02:16:16;;;;;;;46.65;28.02;;;;;;;14.48;100.00;101427.63;5082384;28;20126;-67
2021/09/11 02:18:42;;;;;;;44.50;25.88;;;;;;;14.46;100.00;101428.53;5083134;28;20064;-61
2021/09/11 02:21:07;;;;;;;44.50;26.80;;;;;;;14.44;100.00;101425.84;5079391;28;20051;-61
2021/09/11 02:23:32;;;;;;;43.45;26.27;;;;;;;14.37;100.00;101423.22;5082939;28;20025;-61
2021/09/11 02:25:57;;;;;;;46.55;27.20;;;;;;;14.35;100.00;101428.53;5083250;28;20077;-61
2021/09/11 02:28:23;;;;;;;45.13;26.88;;;;;;;14.32;100.00;101435.66;5081443;28;20024;-62
2021/09/11 02:30:48;;;;;;;43.90;26.20;;;;;;;14.30;100.00;101427.69;5084401;28;20404;-61
2021/09/11 02:33:13;;;;;;;44.70;25.67;;;;;;;14.28;100.00;101434.75;5081243;28;20579;-61
2021/09/11 02:35:39;;;;;;;43.10;25.00;;;;;;;14.25;100.00;101432.13;5065585;28;20048;-62
2021/09/11 02:38:04;;;;;;;43.67;25.02;;;;;;;14.25;100.00;101429.47;5082169;28;20415;-62
2021/09/11 02:40:29;;;;;;;42.95;25.10;;;;;;;14.22;100.00;101425.03;5082012;28;20055;-61
2021/09/11 02:42:55;;;;;;;40.65;23.63;;;;;;;14.19;100.00;101419.72;5083505;28;20063;-62
2021/09/11 02:45:20;;;;;;;41.50;23.73;;;;;;;14.16;100.00;101430.34;5081430;28;20033;-61
2021/09/11 02:47:45;;;;;;;41.55;22.70;;;;;;;14.12;100.00;101426.84;5065959;28;20032;-61
2021/09/11 02:50:11;;;;;;;39.33;22.63;;;;;;;14.10;100.00;101430.38;5081296;28;20372;-61
2021/09/11 02:52:39;;;;;;;38.35;21.08;;;;;;;14.08;100.00;101432.13;5064955;28;20080;-61
2021/09/11 02:55:05;;;;;;;38.55;21.63;;;;;;;14.03;100.00;101429.47;5081781;28;20116;-61
2021/09/11 02:57:30;;;;;;;41.38;21.75;;;;;;;14.01;100.00;101438.31;5082591;28;20103;-63
2021/09/11 02:59:55;;;;;;;37.33;21.30;;;;;;;13.97;100.00;101429.50;5083579;28;20020;-61
2021/09/11 03:02:21;;;;;;;36.92;21.35;;;;;;;13.98;100.00;101428.59;5080996;28;20485;-61
2021/09/11 03:04:46;;;;;;;38.92;21.33;;;;;;;13.92;100.00;101426.84;5084216;28;20032;-61
2021/09/11 03:07:11;;;;;;;35.45;20.30;;;;;;;13.94;100.00;101429.50;5081503;28;20016;-62
2021/09/11 03:09:37;;;;;;;37.50;21.27;;;;;;;13.89;100.00;101429.50;5082039;28;20427;-61
2021/09/11 03:12:02;;;;;;;38.13;20.25;;;;;;;13.89;100.00;101424.19;5082205;28;20064;-62
2021/09/11 03:14:27;;;;;;;37.03;21.50;;;;;;;13.86;100.00;101421.53;5082216;28;20470;-61
2021/09/11 03:16:53;;;;;;;38.22;20.95;;;;;;;13.83;100.00;101421.50;5083672;28;20055;-62
2021/09/11 03:19:18;;;;;;;38.33;20.17;;;;;;;13.85;100.00;101418.84;5080432;28;20028;-62
2021/09/11 03:21:43;;;;;;;36.25;20.25;;;;;;;13.79;100.00;101419.75;5083942;28;20024;-61
2021/09/11 03:24:09;;;;;;;38.05;20.25;;;;;;;13.81;100.00;101417.97;5081571;28;20451;-62
2021/09/11 03:26:34;;;;;;;36.28;20.15;;;;;;;13.79;100.00;101422.41;5082610;28;20028;-61
2021/09/11 03:28:59;;;;;;;37.50;20.25;;;;;;;13.75;100.00;101420.63;5082523;28;20032;-61
2021/09/11 03:31:25;;;;;;;36.58;19.17;;;;;;;13.70;100.00;101422.38;5081471;28;20028;-61
2021/09/11 03:33:50;;;;;;;39.10;20.60;;;;;;;13.70;100.00;101427.69;5083992;28;20028;-61
2021/09/11 03:36:15;;;;;;;37.33;19.77;;;;;;;13.72;100.00;101423.28;5080826;28;20150;-62
2021/09/11 03:38:41;;;;;;;39.15;20.88;;;;;;;13.73;100.00;101420.63;5083538;28;20398;-61
2021/09/11 03:41:06;;;;;;;38.65;20.38;;;;;;;13.80;100.00;101431.25;5081655;28;20035;-61
2021/09/11 03:43:31;;;;;;;38.20;19.80;;;;;;;13.81;100.00;101428.59;5082160;28;20024;-61
2021/09/11 03:45:56;;;;;;;36.33;19.42;;;;;;;13.86;100.00;101437.47;5082627;28;20016;-61
2021/09/11 03:48:22;;;;;;;35.95;18.95;;;;;;;13.86;100.00;101437.47;5081104;28;20036;-67
2021/09/11 03:50:47;;;;;;;35.55;18.88;;;;;;;13.89;100.00;101432.16;5085805;28;20043;-66
2021/09/11 03:53:12;;;;;;;35.10;18.70;;;;;;;13.92;100.00;101428.59;5084473;28;20387;-66
2021/09/11 03:55:38;;;;;;;35.63;18.58;;;;;;;13.94;100.00;101435.69;5067803;28;20044;-64
2021/09/11 03:58:03;;;;;;;35.92;18.58;;;;;;;13.97;100.00;101439.25;5085656;28;20020;-65
2021/09/11 04:00:28;;;;;;;34.08;18.25;;;;;;;14.00;100.00;101439.25;5085261;28;20046;-67
2021/09/11 04:02:54;;;;;;;33.78;17.75;;;;;;;13.98;100.00;101433.03;5086230;28;20359;-64
2021/09/11 04:05:19;;;;;;;32.72;17.58;;;;;;;14.02;100.00;101442.75;5083811;28;20040;-67
2021/09/11 04:07:44;;;;;;;33.05;17.13;;;;;;;14.02;100.00;101437.44;5087371;28;20024;-66
2021/09/11 04:10:10;;;;;;;31.77;16.85;;;;;;;14.07;100.00;101436.56;5084343;28;20031;-67
2021/09/11 04:12:35;;;;;;;31.77;16.15;;;;;;;14.08;100.00;101440.09;5085819;28;20426;-65
2021/09/11 04:15:00;;;;;;;32.47;16.35;;;;;;;14.11;100.00;101443.66;5067221;28;20044;-66
2021/09/11 04:17:26;;;;;;;31.52;15.65;;;;;;;14.12;100.00;101440.13;5084612;28;20107;-67
2021/09/11 04:19:52;;;;;;;30.73;15.90;;;;;;;14.15;100.00;101447.19;5087040;28;20070;-65
2021/09/11 04:22:17;;;;;;;30.30;14.88;;;;;;;14.18;100.00;101441.84;5083517;28;20025;-66
2021/09/11 04:24:42;;;;;;;33.67;16.42;;;;;;;14.20;100.00;101445.41;5086510;28;20069;-67
2021/09/11 04:27:08;;;;;;;30.30;15.93;;;;;;;14.21;100.00;101447.19;5083927;28;20063;-63
2021/09/11 04:29:33;;;;;;;31.60;15.93;;;;;;;14.23;100.00;101441.88;5085255;28;20024;-62
2021/09/11 04:31:58;;;;;;;31.65;16.10;;;;;;;14.23;100.00;101437.44;5085669;28;20471;-62
2021/09/11 04:34:24;;;;;;;30.58;15.95;;;;;;;14.24;100.00;101438.31;5083946;28;20028;-61
2021/09/11 04:36:49;;;;;;;30.98;15.68;;;;;;;14.25;100.00;101435.66;5086703;28;20020;-63
2021/09/11 04:39:14;;;;;;;32.05;15.57;;;;;;;14.26;100.00;101441.88;5083263;28;20020;-61
2021/09/11 04:41:40;;;;;;;29.75;15.77;;;;;;;14.26;100.00;101437.44;5086214;28;20551;-62
2021/09/11 04:44:05;;;;;;;30.08;15.02;;;;;;;14.28;100.00;101433.00;5084464;28;20028;-62
2021/09/11 04:46:30;;;;;;;30.52;14.68;;;;;;;14.29;100.00;101442.75;5084211;28;20392;-62
2021/09/11 04:48:58;;;;;;;29.67;15.07;;;;;;;14.30;100.00;101444.53;5086077;28;20104;-61
2021/09/11 04:51:24;;;;;;;30.20;15.43;;;;;;;14.33;100.00;101450.72;5083330;28;20415;-62
2021/09/11 04:53:49;;;;;;;28.80;14.68;;;;;;;14.33;100.00;101448.97;5086187;28;20070;-62
2021/09/11 04:56:14;;;;;;;30.13;15.10;;;;;;;14.35;100.00;101451.59;5083235;28;20135;-61
2021/09/11 04:58:40;;;;;;;30.13;15.32;;;;;;;14.37;100.00;101441.84;5085545;28;20028;-62
2021/09/11 05:01:05;;;;;;;30.40;14.57;;;;;;;14.36;100.00;101446.28;5083955;28;20035;-67
2021/09/11 05:03:30;;;;;;;30.83;15.88;;;;;;;14.35;100.00;101444.50;5083785;28;20495;-67
2021/09/11 05:05:56;;;;;;;30.08;15.18;;;;;;;14.37;100.00;101441.84;5085376;28;20095;-67
2021/09/11 05:08:22;;;;;;;29.45;15.10;;;;;;;14.36;100.00;101446.28;5082714;28;20067;-67
2021/09/11 05:10:47;;;;;;;29.17;15.07;;;;;;;14.37;100.00;101447.16;5085444;28;20043;-68
2021/09/11 05:13:12;;;;;;;31.52;15.02;;;;;;;14.39;100.00;101448.06;5082849;28;20020;-67
2021/09/11 05:15:38;;;;;;;32.13;15.23;;;;;;;14.41;100.00;101451.59;5085252;28;20035;-67
2021/09/11 05:18:03;;;;;;;29.95;14.35;;;;;;;14.41;100.00;101451.59;5084006;28;20032;-67
2021/09/11 05:20:29;;;;;;;30.42;15.38;;;;;;;14.42;100.00;101451.59;5083667;28;20024;-67
2021/09/11 05:22:54;;;;;;;29.58;14.88;;;;;;;14.42;100.00;101454.25;5089335;28;20024;-67
2021/09/11 05:25:19;;;;;;;31.60;14.43;;;;;;;14.42;100.00;101456.03;5063780;28;20126;-67
2021/09/11 05:27:45;;;;;;;30.63;15.15;;;;;;;14.44;100.00;101457.78;5081857;28;20116;-67
2021/09/11 05:30:11;;;;;;;29.27;15.30;;;;;;;14.44;100.00;101463.09;5084800;28;20032;-67
2021/09/11 05:32:36;;;;;;;30.10;14.68;;;;;;;14.50;100.00;101463.97;5064470;28;20059;-67
2021/09/11 05:35:04;;;;;;;29.48;14.88;;;;;;;14.47;100.00;101456.88;5083340;28;20028;-66
2021/09/11 05:37:30;;;;;;;33.08;15.40;;;;;;;14.50;100.00;101462.19;5083975;28;20109;-67
2021/09/11 05:39:55;;;;;;;29.67;14.90;;;;;;;14.53;100.00;101470.16;5082549;28;20021;-67
2021/09/11 05:42:20;;;;;;;31.00;15.38;;;;;;;14.54;100.00;101468.41;5085466;28;20028;-67
2021/09/11 05:44:46;;;;;;;30.63;14.52;;;;;;;14.54;100.00;101465.75;5081703;28;20103;-67
2021/09/11 05:47:11;;;;;;;29.35;14.60;;;;;;;14.54;100.00;101466.63;5084781;28;20028;-66
2021/09/11 05:49:36;;;;;;;30.10;14.80;;;;;;;14.52;100.00;101463.09;5083055;28;20058;-67
2021/09/11 05:52:02;;;;;;;31.17;14.82;;;;;;;14.53;100.00;101470.16;5083310;28;20102;-68
2021/09/11 05:54:27;;;;;;;30.23;14.88;;;;;;;14.54;100.00;101476.41;5084284;28;20024;-67
2021/09/11 05:56:52;;;;;;;28.90;14.40;;;;;;;14.51;100.00;101482.59;5082180;28;20055;-67
2021/09/11 05:59:18;;;;;;;30.27;14.35;;;;;;;14.47;100.00;101478.16;5085274;28;20106;-66
2021/09/11 06:01:43;;;;;;;29.15;14.57;;;;;;;14.47;100.00;101480.81;5082053;28;20075;-63
2021/09/11 06:04:09;;;;;;;30.45;14.48;;;;;;;14.50;100.00;101486.13;5084061;28;20024;-67
2021/09/11 06:06:34;;;;;;;29.38;14.60;;;;;;;14.55;100.00;101478.19;5082957;28;20028;-64
2021/09/11 06:08:59;;;;;;;30.48;14.77;;;;;;;14.59;100.00;101488.81;5082738;28;20415;-66
2021/09/11 06:11:25;;;;;;;28.60;13.93;;;;;;;14.65;100.00;101482.63;5084403;28;20024;-66
2021/09/11 06:13:50;;;;;;;29.98;14.48;;;;;;;14.69;100.00;101486.16;5080471;28;20029;-66
2021/09/11 06:16:16;;;;;;;28.45;13.77;;;;;;;14.71;100.00;101490.59;5084916;28;20046;-67
2021/09/11 06:18:42;;;;;;;27.83;13.68;;;;;;;14.78;100.00;101494.09;5082084;28;20024;-65
2021/09/11 06:21:07;;;;;;;28.10;13.73;;;;;;;14.84;100.00;101495.84;5083486;28;20095;-64
2021/09/11 06:23:33;;;;;;;28.15;13.85;;;;;;;14.93;100.00;101496.72;5082972;28;20020;-66
2021/09/11 06:26:00;;;;;;;29.30;13.65;;;;;;;15.01;100.00;101503.78;5082144;28;20111;-63
2021/09/11 06:28:26;;;;;;;27.40;13.65;;;;;;;15.07;100.00;101498.44;5083867;28;20031;-66
2021/09/11 06:30:51;;;;;;;28.63;13.20;;;;;;;15.14;100.00;101509.09;5081383;28;20020;-64
2021/09/11 06:33:17;;;;;;;27.75;12.35;;;;;;;15.20;100.00;101501.94;5087820;28;20024;-60
2021/09/11 06:35:42;;;;;;;25.73;12.23;;;;;;;15.18;100.00;101496.63;5086177;28;20032;-61
2021/09/11 06:38:08;;;;;;;26.48;12.10;;;;;;;15.22;100.00;101501.06;5086762;28;20475;-61
2021/09/11 06:40:33;;;;;;;25.58;12.15;;;;;;;15.30;100.00;101503.66;5088350;28;20020;-61
2021/09/11 06:42:58;;;;;;;26.40;12.18;;;;;;;15.36;100.00;101516.06;5089639;28;20138;-61
2021/09/11 06:45:24;;;;;;;24.60;11.43;;;;;;;15.34;100.00;101510.75;5086844;28;20058;-61
2021/09/11 06:47:49;;;;;;;25.63;12.10;;;;;;;15.43;100.00;101520.47;5089467;28;20154;-61
2021/09/11 06:50:14;;;;;;;28.00;12.10;;;;;;;15.47;100.00;101525.78;5083721;28;20024;-61
2021/09/11 06:52:40;;;;;;;26.13;11.88;;;;;;;15.44;100.00;101528.47;5085746;28;20028;-60
2021/09/11 06:55:06;;;;;;;25.80;11.93;;;;;;;15.40;100.00;101525.81;5088339;28;20060;-60
2021/09/11 06:57:31;;;;;;;25.60;11.85;;;;;;;15.34;100.00;101521.41;5086702;28;20078;-62
2021/09/11 06:59:57;;;;;;;24.80;11.05;;;;;;;15.32;100.00;101520.53;5081332;28;20405;-62
2021/09/11 07:02:23;;;;;;;26.58;11.88;;;;;;;15.32;100.00;101524.09;5085039;28;20129;-60
2021/09/11 07:04:48;;;;;;;25.23;11.73;;;;;;;15.32;100.00;101529.41;5086502;28;20059;-61
2021/09/11 07:07:14;;;;;;;25.42;11.88;;;;;;;15.37;100.00;101532.06;5085930;28;20020;-61
2021/09/11 07:09:39;;;;;;;25.38;11.68;;;;;;;15.45;100.00;101534.66;5085343;28;20482;-62
2021/09/11 07:12:07;;;;;;;25.10;11.63;;;;;;;15.48;100.00;101542.66;5088651;28;20023;-64
2021/09/11 07:14:33;;;;;;;26.52;12.20;;;;;;;15.47;100.00;101540.91;5084396;28;20115;-62
2021/09/11 07:16:58;;;;;;;24.23;11.70;;;;;;;15.56;100.00;101537.28;5088033;28;20209;-62
2021/09/11 07:19:24;;;;;;;25.40;12.10;;;;;;;15.59;100.00;101535.47;5089084;28;20111;-62
2021/09/11 07:21:49;;;;;;;24.85;11.60;;;;;;;15.66;100.00;101537.22;5087923;28;20029;-62
2021/09/11 07:24:15;;;;;;;25.77;11.88;;;;;;;15.71;100.00;101541.66;5086561;28;20020;-62
2021/09/11 07:26:40;;;;;;;24.80;11.90;;;;;;;15.78;100.00;101546.03;5090996;28;20028;-62
2021/09/11 07:29:05;;;;;;;26.05;12.57;;;;;;;15.84;100.00;101548.69;5072598;28;20171;-64
2021/09/11 07:31:31;;;;;;;25.15;12.10;;;;;;;15.90;100.00;101548.69;5089388;28;20475;-64
2021/09/11 07:33:56;;;;;;;25.48;12.57;;;;;;;16.02;100.00;101542.38;5090866;28;20032;-62
2021/09/11 07:36:21;;;;;;;26.20;12.32;;;;;;;16.09;100.00;101545.88;5091944;28;20371;-63
2021/09/11 07:38:47;;;;;;;26.35;11.38;;;;;;;16.12;100.00;101545.84;5093597;28;20348;-62
2021/09/11 07:41:12;;;;;;;24.10;11.65;;;;;;;16.14;100.00;101546.72;5093213;28;20024;-63
2021/09/11 07:43:38;;;;;;;25.40;11.70;;;;;;;16.17;100.00;101552.03;5090701;28;20016;-62
2021/09/11 07:46:03;;;;;;;26.42;11.82;;;;;;;16.21;100.00;101544.00;5094089;28;20028;-62
2021/09/11 07:48:28;;;;;;;24.55;11.52;;;;;;;16.28;100.00;101547.50;5089627;28;20020;-65
2021/09/11 07:50:54;;;;;;;25.88;11.68;;;;;;;16.35;100.00;101546.56;5088641;28;20559;-66
2021/09/11 07:53:19;;;;;;;26.10;12.07;;;;;;;16.42;100.00;101543.84;5091857;28;20020;-65
2021/09/11 07:55:45;;;;;;;26.55;11.60;;;;;;;16.43;100.00;101554.50;5091495;28;20043;-65
2021/09/11 07:58:10;;;;;;;24.45;11.35;;;;;;;16.42;100.00;101557.19;5090512;28;20043;-66
2021/09/11 08:00:36;;;;;;;25.25;12.20;;;;;;;16.38;100.00;101554.53;5083805;28;20467;-66
2021/09/11 08:03:01;;;;;;;26.75;12.07;;;;;;;16.41;100.00;101556.31;5083450;28;20388;-65
2021/09/11 08:05:27;;;;;;;27.25;12.93;;;;;;;16.38;100.00;101561.63;5086598;28;20077;-66
2021/09/11 08:07:53;;;;;;;26.38;12.32;;;;;;;16.39;100.00;101553.63;5084330;28;20373;-64
2021/09/11 08:10:19;;;;;;;25.48;12.15;;;;;;;16.39;100.00;101561.63;5085286;28;20025;-65
2021/09/11 08:12:47;;;;;;;28.90;12.80;;;;;;;16.36;100.00;101564.31;5085595;28;20031;-64
2021/09/11 08:15:13;;;;;;;25.88;12.50;;;;;;;16.35;100.00;101572.34;5084994;28;20462;-66
2021/09/11 08:17:38;;;;;;;26.63;12.15;;;;;;;16.34;100.00;101571.47;5086429;28;20024;-67
2021/09/11 08:20:05;;;;;;;25.42;12.38;;;;;;;16.36;100.00;101556.31;5083574;28;20028;-66
2021/09/11 08:22:30;;;;;;;27.27;12.88;;;;;;;16.45;100.00;101565.16;5086994;28;20459;-66
2021/09/11 08:24:56;;;;;;;26.02;12.55;;;;;;;16.52;100.00;101558.88;5083670;28;20031;-67
2021/09/11 08:27:23;;;;;;;26.30;13.38;;;;;;;16.61;100.00;101569.44;5067653;28;20469;-65
2021/09/11 08:29:48;;;;;;;26.42;12.30;;;;;;;16.68;100.00;101564.94;5084880;28;20028;-67
2021/09/11 08:32:13;;;;;;;25.42;13.13;;;;;;;16.84;100.00;101563.88;5084978;28;20027;-67
2021/09/11 08:34:41;;;;;;;26.17;13.32;;;;;;;17.07;100.00;101563.66;5088938;28;20502;-65
2021/09/11 08:37:06;;;;;;;27.00;13.90;;;;;;;17.11;100.00;101576.97;5091641;28;20031;-65
2021/09/11 08:39:32;;;;;;;25.92;13.20;;;;;;;17.17;100.00;101577.81;5089216;28;20020;-65
2021/09/11 08:41:58;;;;;;;25.05;12.80;;;;;;;17.28;100.00;101575.00;5089043;28;20044;-61
2021/09/11 08:44:25;;;;;;;25.73;14.07;;;;;;;17.35;100.00;101582.03;5090730;28;20131;-61
2021/09/11 08:46:52;;;;;;;26.65;13.50;;;;;;;17.63;100.00;101583.50;5091516;28;20016;-61
2021/09/11 08:49:18;;;;;;;26.77;13.82;;;;;;;18.02;100.00;101582.06;5089474;28;20028;-61
2021/09/11 08:51:44;;;;;;;26.27;13.40;;;;;;;18.15;100.00;101579.22;5087850;28;20498;-64
2021/09/11 08:54:14;;;;;;;25.42;13.65;;;;;;;18.14;100.00;101586.34;5089381;28;20031;-62
2021/09/11 08:56:41;;;;;;;25.23;13.60;;;;;;;18.18;100.00;101577.38;5088072;28;20418;-64
2021/09/11 08:59:11;;;;;;;26.08;13.43;;;;;;;18.18;100.00;101597.91;5087686;28;20032;-64
2021/09/11 09:01:37;;;;;;;26.05;14.55;;;;;;;18.07;100.00;101596.28;5091364;28;20056;-64
2021/09/11 09:04:03;;;;;;;26.92;13.57;;;;;;;17.88;100.00;101600.06;5081549;28;20071;-64
2021/09/11 09:06:31;;;;;;;26.00;13.52;;;;;;;17.75;100.00;101613.63;5083698;28;20055;-64
2021/09/11 09:09:06;;;;;;;25.33;13.73;;;;;;;17.56;100.00;101604.06;5086197;28;20043;-62
2021/09/11 09:11:33;;;;;;;27.63;13.63;;;;;;;17.50;100.00;101617.50;5084822;28;20472;-65
2021/09/11 09:14:01;;;;;;;26.00;13.43;;;;;;;17.42;100.00;101618.47;5083804;28;20375;-65
2021/09/11 09:16:33;;;;;;;26.52;13.82;;;;;;;17.32;100.00;101616.81;5083965;28;20507;-64
2021/09/11 09:19:04;;;;;;;26.92;14.57;;;;;;;17.33;100.00;101607.00;5083327;28;20461;-63
2021/09/11 09:21:31;;;;;;;26.10;14.75;;;;;;;17.40;100.00;101619.38;5084487;28;20027;-65
2021/09/11 09:24:03;;;;;;;27.85;14.15;;;;;;;17.46;100.00;101613.09;5083998;28;20028;-63
2021/09/11 09:26:30;;;;;;;26.33;14.55;;;;;;;17.45;100.00;101611.34;5084706;28;20383;-67
2021/09/11 09:29:07;;;;;;;25.90;14.65;;;;;;;17.38;100.00;101610.53;5083867;28;20558;-65
2021/09/11 09:31:34;;;;;;;26.55;14.75;;;;;;;17.39;100.00;101615.84;5084437;28;20027;-66
2021/09/11 09:33:59;;;;;;;26.48;14.73;;;;;;;17.49;100.00;101613.97;5090063;28;20036;-63
2021/09/11 09:36:40;;;;;;;27.33;15.32;;;;;;;17.66;100.00;101611.06;5087493;28;20482;-67
2021/09/11 09:39:10;;;;;;;27.80;14.73;;;;;;;17.76;100.00;101617.16;5086509;28;20020;-63
2021/09/11 09:41:50;;;;;;;28.50;14.48;;;;;;;17.80;100.00;101616.22;5089314;28;20110;-67
2021/09/11 09:44:19;;;;;;;27.40;15.93;;;;;;;17.76;100.00;101612.69;5081378;28;20032;-63
2021/09/11 09:46:46;;;;;;;28.77;16.00;;;;;;;17.89;100.00;101613.41;5087430;28;20036;-62
2021/09/11 09:49:17;;;;;;;28.42;15.85;;;;;;;18.11;100.00;101611.38;5087235;28;20066;-65
2021/09/11 09:51:43;;;;;;;27.13;14.38;;;;;;;18.14;100.00;101609.56;5087439;28;20123;-63
2021/09/11 09:54:09;;;;;;;26.63;14.95;;;;;;;18.23;100.00;101607.63;5088337;28;20153;-66
2021/09/11 09:56:35;;;;;;;27.30;14.73;;;;;;;18.32;100.00;101616.41;5081809;28;20025;-70
2021/09/11 09:59:00;;;;;;;27.45;14.77;;;;;;;18.33;100.00;101599.44;5085292;28;20066;-78
2021/09/11 10:01:27;;;;;;;25.67;13.77;;;;;;;18.59;100.00;101609.72;5081661;28;20078;-67
2021/09/11 10:03:53;;;;;;;28.70;14.68;;;;;;;18.68;99.10;101606.88;5084224;28;21000;-80
2021/09/11 10:06:30;;;;;;;26.67;14.18;;;;;;;18.90;98.80;101603.84;5083014;28;20025;-62
2021/09/11 10:09:05;;;;;;;27.98;14.48;;;;;;;18.97;95.41;101605.50;5084662;28;20028;-64
2021/09/11 10:11:39;;;;;;;27.20;14.25;;;;;;;18.99;94.94;101599.22;5081320;28;20024;-62
2021/09/11 10:14:10;;;;;;;24.70;14.50;;;;;;;19.14;93.57;101607.88;5081184;28;20498;-67
2021/09/11 10:16:38;;;;;;;25.80;13.27;;;;;;;19.33;92.34;101597.66;5084422;28;20032;-68
2021/09/11 10:19:20;;;;;;;27.63;13.80;;;;;;;19.35;94.80;101595.81;5081414;28;20111;-62
2021/09/11 10:21:46;;;;;;;25.13;13.90;;;;;;;19.46;91.42;101599.19;5083164;28;20059;-62
2021/09/11 10:24:16;;;;;;;25.48;13.25;;;;;;;19.48;90.77;101602.72;5082359;28;20031;-62
2021/09/11 10:26:59;;;;;;;23.98;13.23;;;;;;;19.25;91.12;101600.50;5083344;28;20028;-63
2021/09/11 10:29:33;;;;;;;24.52;13.82;;;;;;;18.97;93.27;101594.78;5083900;28;20535;-65
2021/09/11 10:32:01;;;;;;;26.33;13.50;;;;;;;18.84;95.65;101607.47;5078280;28;20391;-62
2021/09/11 10:34:54;;;;;;;25.02;14.05;;;;;;;18.90;93.80;101596.72;5082047;28;20455;-68
2021/09/11 10:37:43;;;;;;;26.40;14.05;;;;;;;18.92;96.40;101594.88;5080963;28;20028;-65
2021/09/11 10:40:19;;;;;;;23.98;13.07;;;;;;;18.94;94.12;101589.50;5083670;28;20389;-62
2021/09/11 10:43:16;;;;;;;25.52;13.77;;;;;;;18.93;93.07;101598.44;5084376;28;20485;-63
2021/09/11 10:45:43;;;;;;;26.55;13.50;;;;;;;18.89;94.46;101591.38;5087109;28;20028;-62
2021/09/11 10:48:50;;;;;;;24.95;13.73;;;;;;;18.88;97.90;101589.63;5086663;28;20039;-60
2021/09/11 10:51:28;;;;;;;25.73;13.50;;;;;;;18.84;94.57;101598.56;5023415;28;20061;-60
2021/09/11 10:54:27;;;;;;;25.98;13.60;;;;;;;18.71;96.76;101598.81;5025485;28;20044;-60
2021/09/11 10:57:04;;;;;;;24.63;12.93;;;;;;;18.64;97.61;101589.13;5022649;28;20551;-60
2021/09/11 10:59:34;;;;;;;25.63;13.05;;;;;;;18.69;97.09;101599.75;5024153;28;20037;-60
2021/09/11 11:02:03;;;;;;;24.95;13.25;;;;;;;18.81;95.14;101597.72;5023943;28;20037;-60